Time;durP1;ratioP1;P1;durP2;ratioP2;P2;SDS_P1;SDS_P2;PMS_P1;PMS_P2;Temp;Humidity;BMP_temperature;BMP_pressure;BME280_temperature;BME280_humidity;BME280_pressure;Samples;Min_cycle;Max_cycle;Signal;HPM_P1;HPM_P2
2024/03/22 00:55:24;;;;;;;59.70;37.37;;;9.00;99.90;;;;;;4724773;29;21277;-87
2024/03/22 02:32:16;;;;;;;97.90;50.33;;;9.10;99.90;;;;;;4702796;30;20244;-85
2024/03/22 02:35:50;;;;;;;97.63;49.57;;;9.10;99.90;;;;;;4696788;30;20510;-87
2024/03/22 03:06:27;;;;;;;100.17;48.67;;;9.10;99.90;;;;;;5834976;24;20238;-83
2024/03/22 04:39:02;;;;;;;75.97;37.60;;;7.80;99.90;;;;;;5573535;25;20323;-86
2024/03/22 04:53:25;;;;;;;91.43;44.83;;;7.70;99.90;;;;;;6139591;22;20239;-86
2024/03/22 04:57:25;;;;;;;86.97;41.33;;;7.60;99.90;;;;;;6179948;23;20440;-84
2024/03/22 05:17:41;;;;;;;69.13;36.60;;;7.50;99.90;;;;;;5714254;24;20208;-85
2024/03/22 06:16:56;;;;;;;49.20;28.70;;;7.90;99.90;;;;;;5522751;24;20644;-81
2024/03/22 06:47:08;;;;;;;41.10;24.13;;;8.10;99.90;;;;;;6013216;23;20160;-84
2024/03/22 07:06:57;;;;;;;42.07;23.97;;;8.40;99.90;;;;;;5578007;24;20617;-84
2024/03/22 07:47:41;;;;;;;37.93;23.03;;;8.30;99.90;;;;;;5799860;23;20485;-89
2024/03/22 08:08:39;;;;;;;38.07;23.27;;;9.00;99.90;;;;;;5857409;24;20465;-82
2024/03/22 08:12:54;;;;;;;36.07;22.97;;;9.20;98.70;;;;;;5780596;24;20462;-81
2024/03/22 08:33:50;;;;;;;34.77;22.23;;;9.70;94.90;;;;;;5782789;24;20541;-82
2024/03/22 08:58:34;;;;;;;28.00;19.77;;;10.10;90.40;;;;;;5737765;23;20413;-84
2024/03/22 09:18:52;;;;;;;29.93;20.23;;;9.70;91.30;;;;;;5638258;24;20501;-80
2024/03/22 09:39:47;;;;;;;33.80;22.30;;;10.20;90.70;;;;;;5725448;24;20159;-84
2024/03/22 10:00:03;;;;;;;29.83;20.67;;;9.70;91.40;;;;;;5792874;23;20371;-82
2024/03/22 10:30:18;;;;;;;29.13;18.83;;;9.70;92.80;;;;;;5943708;23;20657;-84
2024/03/22 10:55:50;;;;;;;28.63;19.43;;;9.50;95.50;;;;;;5671238;24;20459;-78
2024/03/22 11:16:14;;;;;;;27.37;19.40;;;10.40;94.60;;;;;;5680438;24;20392;-81
2024/03/22 11:51:46;;;;;;;23.07;16.83;;;10.60;90.90;;;;;;5887658;23;20191;-81
2024/03/22 12:22:10;;;;;;;19.83;14.07;;;11.20;89.00;;;;;;5807986;23;20859;-84
2024/03/22 12:47:12;;;;;;;17.63;13.97;;;11.20;87.90;;;;;;5526409;24;20568;-79
2024/03/22 13:07:09;;;;;;;15.23;11.97;;;11.20;86.30;;;;;;5518074;24;20459;-81
2024/03/22 13:28:07;;;;;;;17.37;13.60;;;11.20;86.80;;;;;;5745681;24;20168;-83
2024/03/22 13:53:25;;;;;;;17.90;13.57;;;11.50;86.90;;;;;;5998208;23;20314;-82
2024/03/22 14:13:26;;;;;;;18.07;13.77;;;11.20;87.40;;;;;;5830898;23;20436;-83
2024/03/22 14:49:23;;;;;;;20.00;15.53;;;11.10;87.50;;;;;;6017942;23;20690;-79
2024/03/22 14:53:41;;;;;;;19.80;15.13;;;11.10;87.50;;;;;;5922243;23;20505;-83
2024/03/22 15:14:39;;;;;;;18.03;15.40;;;11.00;87.70;;;;;;5896212;23;20182;-82
2024/03/22 15:55:16;;;;;;;24.00;17.20;;;10.30;90.50;;;;;;5868826;23;20279;-82
2024/03/22 16:20:38;;;;;;;22.27;16.70;;;10.20;91.10;;;;;;6054679;23;20520;-85
2024/03/22 16:40:23;;;;;;;23.47;16.60;;;10.30;91.70;;;;;;5957406;23;20267;-85
2024/03/22 17:06:13;;;;;;;22.37;16.77;;;10.00;92.30;;;;;;5982759;23;20719;-83
2024/03/22 17:41:37;;;;;;;22.53;16.63;;;10.00;93.30;;;;;;5952539;23;20560;-83
2024/03/22 18:11:29;;;;;;;25.40;17.57;;;9.90;94.20;;;;;;5927908;23;20493;-87
2024/03/22 18:36:51;;;;;;;23.40;16.93;;;10.00;92.80;;;;;;5845450;24;21003;-85
2024/03/22 19:18:11;;;;;;;20.10;14.70;;;10.30;89.50;;;;;;5690187;24;20230;-83
2024/03/22 19:38:11;;;;;;;19.53;14.53;;;10.30;89.20;;;;;;5882553;23;20546;-83
2024/03/22 20:03:45;;;;;;;22.23;15.17;;;10.20;89.00;;;;;;5965209;23;20212;-83
2024/03/22 20:24:04;;;;;;;21.50;15.00;;;10.50;88.90;;;;;;6102472;23;20226;-87
2024/03/22 20:54:20;;;;;;;18.00;13.83;;;10.70;88.60;;;;;;5945574;23;20172;-82
2024/03/22 21:14:17;;;;;;;19.47;13.73;;;10.10;90.70;;;;;;5805790;24;20558;-81
2024/03/22 21:40:10;;;;;;;20.63;14.80;;;9.90;91.90;;;;;;5766166;24;20201;-85
2024/03/22 22:05:21;;;;;;;21.80;16.07;;;9.60;94.00;;;;;;5675387;25;20247;-86
